createdAt,value
2022-08-29T00:01:05.316Z,16.03
2022-08-29T00:03:38.748Z,10.50
2022-08-29T00:06:11.056Z,11.73
2022-08-29T00:08:40.726Z,11.00
2022-08-29T00:11:10.572Z,9.60
2022-08-29T00:13:40.249Z,14.73
2022-08-29T00:16:10.022Z,14.43
2022-08-29T00:18:42.984Z,14.03
2022-08-29T00:21:12.621Z,14.37
2022-08-29T00:23:42.549Z,9.37
2022-08-29T00:26:12.186Z,12.50
2022-08-29T00:28:41.873Z,14.60
2022-08-29T00:31:11.551Z,14.33
2022-08-29T00:33:43.882Z,15.67
2022-08-29T00:36:13.666Z,11.10
2022-08-29T00:38:43.486Z,19.87
2022-08-29T00:41:13.565Z,11.90
2022-08-29T00:43:43.245Z,12.40
2022-08-29T00:46:34.677Z,9.20
2022-08-29T00:49:11.782Z,10.53
2022-08-29T00:51:43.263Z,13.50
2022-08-29T00:54:14.566Z,13.53
2022-08-29T00:56:45.762Z,14.77
2022-08-29T00:59:19.493Z,14.87
2022-08-29T01:01:49.900Z,10.70
2022-08-29T01:04:24.307Z,11.03
2022-08-29T01:06:55.791Z,12.97
2022-08-29T01:09:26.444Z,13.93
2022-08-29T01:12:09.139Z,13.37
2022-08-29T01:14:39.235Z,19.40
2022-08-29T01:17:11.266Z,14.70
2022-08-29T01:19:49.934Z,14.53
2022-08-29T01:22:33.846Z,17.40
2022-08-29T01:25:10.193Z,14.73
2022-08-29T01:27:43.297Z,15.67
2022-08-29T01:30:15.253Z,12.43
2022-08-29T01:32:45.443Z,13.13
2022-08-29T01:35:15.714Z,12.23
2022-08-29T01:37:47.098Z,18.23
2022-08-29T01:40:19.550Z,12.07
2022-08-29T01:42:49.231Z,13.53
2022-08-29T01:45:20.034Z,12.70
2022-08-29T01:47:50.522Z,14.43
2022-08-29T01:50:20.362Z,10.60
2022-08-29T01:52:50.142Z,10.23
2022-08-29T01:55:22.595Z,16.10
2022-08-29T01:57:52.208Z,11.70
2022-08-29T02:00:25.888Z,13.00
2022-08-29T02:02:56.823Z,12.47
2022-08-29T02:05:26.437Z,12.27
2022-08-29T02:07:56.151Z,22.10
2022-08-29T02:10:28.589Z,17.00
2022-08-29T02:12:58.365Z,13.30
2022-08-29T02:15:28.038Z,14.17
2022-08-29T02:17:57.628Z,13.00
2022-08-29T02:20:27.497Z,12.40
2022-08-29T02:22:57.142Z,10.00
2022-08-29T02:25:46.603Z,12.80
2022-08-29T02:28:20.829Z,9.50
2022-08-29T02:30:56.589Z,12.03
2022-08-29T02:33:27.356Z,10.23
2022-08-29T02:35:58.697Z,17.27
2022-08-29T02:38:29.586Z,9.10
2022-08-29T02:41:02.459Z,11.87
2022-08-29T02:43:32.275Z,18.10
2022-08-29T02:46:02.386Z,9.67
2022-08-29T02:48:32.070Z,12.47
2022-08-29T02:51:01.806Z,16.63
2022-08-29T02:53:34.074Z,11.93
2022-08-29T02:56:06.510Z,14.07
2022-08-29T02:58:39.757Z,17.87
2022-08-29T03:01:09.599Z,13.87
2022-08-29T03:03:39.281Z,11.03
2022-08-29T03:06:09.592Z,11.17
2022-08-29T03:08:39.495Z,15.10
2022-08-29T03:11:11.799Z,9.03
2022-08-29T03:13:41.481Z,12.93
2022-08-29T03:16:11.593Z,11.50
2022-08-29T03:18:41.635Z,8.83
2022-08-29T03:21:17.512Z,9.10
2022-08-29T03:23:47.161Z,12.30
2022-08-29T03:26:19.666Z,8.13
2022-08-29T03:28:49.648Z,18.03
2022-08-29T03:31:19.487Z,12.10
2022-08-29T03:33:49.287Z,12.50
2022-08-29T03:36:19.010Z,12.57
2022-08-29T03:38:49.343Z,14.10
2022-08-29T03:41:27.422Z,15.17
2022-08-29T03:43:58.989Z,11.03
2022-08-29T03:46:29.481Z,9.70
2022-08-29T03:48:59.175Z,12.27
2022-08-29T03:51:31.302Z,8.03
2022-08-29T03:54:01.136Z,11.43
2022-08-29T03:56:34.394Z,10.90
2022-08-29T03:59:04.067Z,11.63
2022-08-29T04:01:33.813Z,17.47
2022-08-29T04:04:03.500Z,16.63
2022-08-29T04:06:33.918Z,8.40
2022-08-29T04:09:03.794Z,10.80
2022-08-29T04:11:36.470Z,12.73
2022-08-29T04:14:06.222Z,13.63
2022-08-29T04:16:36.046Z,11.70
2022-08-29T04:19:05.730Z,13.77
2022-08-29T04:21:38.542Z,9.13
2022-08-29T04:24:08.748Z,11.80
2022-08-29T04:26:41.663Z,11.80
2022-08-29T04:29:13.883Z,14.90
2022-08-29T04:31:45.647Z,12.10
2022-08-29T04:34:15.960Z,11.80
2022-08-29T04:36:47.273Z,11.23
2022-08-29T04:39:18.188Z,18.57
2022-08-29T04:41:50.538Z,11.33
2022-08-29T04:44:20.193Z,12.07
2022-08-29T04:46:49.865Z,13.90
2022-08-29T04:49:20.059Z,19.17
2022-08-29T04:51:49.975Z,16.13
2022-08-29T04:54:19.669Z,8.83
2022-08-29T04:56:52.167Z,12.83
2022-08-29T04:59:27.061Z,10.93
2022-08-29T05:01:57.671Z,15.67
2022-08-29T05:04:27.958Z,12.57
2022-08-29T05:06:58.685Z,14.43
2022-08-29T05:09:28.370Z,13.73
2022-08-29T05:12:00.654Z,13.33
2022-08-29T05:14:35.174Z,12.73
2022-08-29T05:17:04.827Z,14.60
2022-08-29T05:19:36.543Z,12.27
2022-08-29T05:22:16.655Z,13.13
2022-08-29T05:24:49.036Z,20.40
2022-08-29T05:27:23.129Z,9.83
2022-08-29T05:29:55.117Z,12.10
2022-08-29T05:32:27.080Z,12.20
2022-08-29T05:34:57.726Z,11.13
2022-08-29T05:37:28.978Z,13.30
2022-08-29T05:39:59.010Z,14.77
2022-08-29T05:42:31.906Z,16.50
2022-08-29T05:45:01.622Z,13.47
2022-08-29T05:47:35.320Z,12.40
2022-08-29T05:50:07.427Z,16.80
2022-08-29T05:52:38.179Z,19.10
2022-08-29T05:55:08.768Z,10.30
2022-08-29T05:57:42.090Z,10.87
2022-08-29T06:00:13.282Z,10.80
2022-08-29T06:02:43.093Z,10.63
2022-08-29T06:05:13.316Z,12.60
2022-08-29T06:07:43.007Z,8.53
2022-08-29T06:10:12.957Z,13.37
2022-08-29T06:12:46.225Z,11.50
2022-08-29T06:15:16.962Z,11.97
2022-08-29T06:17:46.661Z,11.30
2022-08-29T06:20:16.518Z,14.43
2022-08-29T06:22:46.187Z,20.67
2022-08-29T06:25:37.993Z,11.20
2022-08-29T06:28:09.983Z,9.30
2022-08-29T06:30:41.281Z,15.07
2022-08-29T06:33:12.051Z,16.00
2022-08-29T06:35:43.731Z,9.30
2022-08-29T06:38:15.782Z,13.67
2022-08-29T06:40:45.606Z,12.00
2022-08-29T06:43:18.103Z,12.03
2022-08-29T06:45:47.818Z,10.17
2022-08-29T06:48:22.925Z,16.57
2022-08-29T06:50:56.478Z,11.57
2022-08-29T06:53:31.900Z,11.33
2022-08-29T06:56:11.042Z,13.23
2022-08-29T06:58:45.187Z,15.70
2022-08-29T07:01:17.689Z,9.87
2022-08-29T07:03:49.083Z,14.67
2022-08-29T07:06:20.591Z,11.37
2022-08-29T07:08:55.759Z,12.07
2022-08-29T07:11:26.363Z,16.20
2022-08-29T07:13:59.974Z,11.00
2022-08-29T07:16:30.898Z,16.37
2022-08-29T07:19:04.241Z,11.97
2022-08-29T07:21:34.538Z,25.70
2022-08-29T07:24:06.289Z,7.97
2022-08-29T07:26:41.446Z,14.00
2022-08-29T07:29:18.229Z,10.30
2022-08-29T07:31:48.542Z,12.33
2022-08-29T07:34:20.520Z,9.43
2022-08-29T07:36:51.680Z,13.87
2022-08-29T07:39:24.159Z,14.27
2022-08-29T07:41:54.946Z,16.83
2022-08-29T07:44:33.148Z,15.40
2022-08-29T07:47:04.382Z,12.20
2022-08-29T07:49:41.138Z,12.07
2022-08-29T07:52:11.713Z,11.20
2022-08-29T07:54:41.438Z,14.40
2022-08-29T07:57:14.974Z,15.83
2022-08-29T07:59:48.241Z,16.87
2022-08-29T08:02:22.222Z,15.50
2022-08-29T08:04:52.406Z,11.00
2022-08-29T08:07:29.342Z,27.37
2022-08-29T08:10:00.413Z,12.33
2022-08-29T08:12:30.247Z,15.00
2022-08-29T08:15:03.580Z,12.63
2022-08-29T08:17:35.861Z,16.43
2022-08-29T08:20:08.031Z,17.17
2022-08-29T08:22:40.825Z,20.63
2022-08-29T08:25:14.138Z,16.90
2022-08-29T08:27:44.011Z,13.40
2022-08-29T08:30:18.914Z,17.93
2022-08-29T08:32:54.985Z,18.83
2022-08-29T08:35:25.760Z,23.47
2022-08-29T08:37:57.694Z,11.53
2022-08-29T08:40:30.433Z,17.10
2022-08-29T08:43:03.687Z,20.33
2022-08-29T08:45:40.724Z,20.00
2022-08-29T08:48:13.848Z,22.13
2022-08-29T08:50:52.446Z,19.63
2022-08-29T08:53:30.001Z,27.97
2022-08-29T08:56:01.372Z,21.07
2022-08-29T08:58:37.337Z,17.90
2022-08-29T09:01:21.562Z,25.03
2022-08-29T09:04:06.181Z,17.97
2022-08-29T09:06:56.838Z,20.63
2022-08-29T09:09:35.776Z,20.10
2022-08-29T09:12:17.475Z,29.17
2022-08-29T09:15:00.345Z,15.43
2022-08-29T09:17:41.334Z,24.80
2022-08-29T09:20:17.037Z,24.83
2022-08-29T09:22:59.693Z,28.67
2022-08-29T09:25:36.035Z,21.47
2022-08-29T09:28:10.100Z,19.33
2022-08-29T09:30:42.303Z,18.73
2022-08-29T09:33:16.934Z,17.50
2022-08-29T09:35:51.962Z,20.43
2022-08-29T09:38:25.778Z,22.30
2022-08-29T09:40:57.679Z,19.70
2022-08-29T09:43:36.372Z,23.40
2022-08-29T09:46:24.990Z,22.97
2022-08-29T09:49:15.677Z,18.00
2022-08-29T09:51:51.029Z,23.37
2022-08-29T09:54:28.622Z,26.33
2022-08-29T09:57:07.628Z,18.30
2022-08-29T09:59:39.950Z,19.90
2022-08-29T10:02:23.731Z,24.00
2022-08-29T10:04:59.985Z,26.40
2022-08-29T10:07:37.696Z,16.60
2022-08-29T10:10:17.039Z,23.23
2022-08-29T10:12:53.212Z,24.03
2022-08-29T10:15:49.580Z,18.87
2022-08-29T10:18:28.808Z,28.93
2022-08-29T10:21:13.111Z,24.90
2022-08-29T10:24:00.418Z,27.20
2022-08-29T10:26:42.137Z,23.83
2022-08-29T10:29:29.641Z,20.03
2022-08-29T10:32:10.826Z,18.73
2022-08-29T10:34:58.212Z,17.73
2022-08-29T10:37:40.827Z,21.97
2022-08-29T10:40:17.688Z,20.40
2022-08-29T10:42:52.769Z,27.07
2022-08-29T10:45:34.548Z,17.13
2022-08-29T10:48:14.302Z,18.13
2022-08-29T10:50:53.317Z,16.73
2022-08-29T10:53:30.441Z,14.43
2022-08-29T10:56:06.616Z,17.47
2022-08-29T10:58:53.613Z,12.07
2022-08-29T11:01:27.993Z,13.87
2022-08-29T11:04:17.755Z,12.00
2022-08-29T11:06:55.821Z,21.17
2022-08-29T11:09:31.990Z,14.13
2022-08-29T11:12:09.356Z,16.60
2022-08-29T11:14:49.293Z,16.10
2022-08-29T11:17:21.866Z,19.83
2022-08-29T11:20:02.017Z,10.83
2022-08-29T11:22:38.523Z,11.03
2022-08-29T11:25:15.473Z,17.10
2022-08-29T11:27:57.631Z,12.07
2022-08-29T11:30:47.949Z,11.70
2022-08-29T11:33:35.328Z,13.83
2022-08-29T11:36:22.760Z,16.50
2022-08-29T11:39:26.009Z,13.43
2022-08-29T11:42:01.822Z,11.60
2022-08-29T11:44:36.538Z,16.00
2022-08-29T11:47:50.329Z,17.87
2022-08-29T11:50:33.680Z,15.80
2022-08-29T11:53:12.177Z,14.60
2022-08-29T11:56:07.681Z,13.37
2022-08-29T11:58:50.131Z,13.80
2022-08-29T12:01:49.744Z,14.00
2022-08-29T12:05:00.793Z,18.30
2022-08-29T12:07:39.328Z,14.77
2022-08-29T12:10:13.715Z,13.03
2022-08-29T12:12:49.483Z,18.43
2022-08-29T12:15:51.682Z,11.33
2022-08-29T12:18:36.615Z,15.87
2022-08-29T12:21:47.214Z,15.07
2022-08-29T12:24:57.054Z,7.93
2022-08-29T12:27:43.748Z,9.40
2022-08-29T12:30:16.175Z,15.83
2022-08-29T12:33:08.084Z,15.13
2022-08-29T12:36:08.927Z,14.27
2022-08-29T12:38:53.532Z,12.03
2022-08-29T12:41:36.453Z,12.13
2022-08-29T12:44:16.710Z,9.30
2022-08-29T12:46:54.284Z,17.00
2022-08-29T12:49:28.995Z,13.10
2022-08-29T12:52:01.911Z,9.20
2022-08-29T12:54:38.581Z,18.03
2022-08-29T12:57:11.134Z,13.57
2022-08-29T12:59:47.395Z,9.27
2022-08-29T13:02:27.295Z,6.43
2022-08-29T13:04:57.737Z,13.60
2022-08-29T13:07:30.367Z,10.43
2022-08-29T13:10:03.727Z,8.80
2022-08-29T13:12:35.685Z,12.10
2022-08-29T13:15:08.043Z,15.20
2022-08-29T13:17:40.207Z,6.60
2022-08-29T13:20:41.154Z,7.77
2022-08-29T13:23:18.390Z,9.47
2022-08-29T13:25:55.540Z,5.23
2022-08-29T13:28:33.363Z,9.30
2022-08-29T13:31:26.376Z,7.47
2022-08-29T13:34:22.078Z,8.43
2022-08-29T13:37:06.397Z,9.47
2022-08-29T13:39:43.561Z,10.93
2022-08-29T13:42:35.287Z,9.33
2022-08-29T13:45:24.494Z,10.53
2022-08-29T13:48:02.338Z,8.90
2022-08-29T13:50:34.023Z,6.80
2022-08-29T13:53:04.716Z,7.20
2022-08-29T13:55:36.009Z,8.70
2022-08-29T13:58:08.401Z,9.33
2022-08-29T14:00:38.280Z,9.67
2022-08-29T14:03:09.576Z,12.57
2022-08-29T14:05:39.900Z,6.33
2022-08-29T14:08:13.270Z,16.30
2022-08-29T14:10:43.245Z,13.60
2022-08-29T14:13:15.576Z,4.40
2022-08-29T14:15:45.508Z,12.57
2022-08-29T14:18:16.644Z,11.30
2022-08-29T14:20:46.457Z,5.97
2022-08-29T14:23:19.133Z,4.43
2022-08-29T14:25:52.405Z,5.00
2022-08-29T14:28:25.705Z,10.10
2022-08-29T14:30:56.650Z,6.83
2022-08-29T14:33:26.437Z,10.80
2022-08-29T14:35:56.119Z,6.90
2022-08-29T14:38:25.825Z,14.93
2022-08-29T14:40:55.624Z,8.83
2022-08-29T14:43:28.959Z,8.23
2022-08-29T14:45:59.846Z,8.13
2022-08-29T14:48:30.195Z,4.40
2022-08-29T14:51:00.955Z,5.67
2022-08-29T14:53:33.023Z,9.80
2022-08-29T14:56:06.846Z,5.93
2022-08-29T14:58:40.166Z,5.70
2022-08-29T15:01:10.415Z,7.17
2022-08-29T15:03:40.153Z,7.63
2022-08-29T15:06:10.870Z,7.60
2022-08-29T15:08:40.590Z,5.97
2022-08-29T15:11:11.876Z,10.53
2022-08-29T15:13:44.282Z,4.13
2022-08-29T15:16:15.905Z,4.13
2022-08-29T15:19:37.190Z,7.13
2022-08-29T15:21:36.552Z,5.60
2022-08-29T15:24:07.927Z,8.13
2022-08-29T15:26:37.752Z,7.03
2022-08-29T15:29:10.030Z,4.63
2022-08-29T15:31:40.837Z,5.53
2022-08-29T15:34:12.531Z,3.67
2022-08-29T15:36:45.937Z,8.70
2022-08-29T15:39:15.610Z,3.80
2022-08-29T15:41:46.400Z,5.10
2022-08-29T15:44:19.776Z,4.83
2022-08-29T15:46:51.029Z,7.17
2022-08-29T15:49:23.472Z,4.47
2022-08-29T15:51:55.475Z,5.03
2022-08-29T15:54:27.070Z,4.13
2022-08-29T15:56:57.001Z,5.37
2022-08-29T15:59:54.421Z,6.80
2022-08-29T16:02:20.986Z,4.57
2022-08-29T16:04:54.782Z,7.73
2022-08-29T16:07:28.656Z,4.10
2022-08-29T16:10:00.411Z,4.57
2022-08-29T16:12:31.493Z,4.70
2022-08-29T16:15:09.424Z,8.87
2022-08-29T16:17:39.769Z,2.63
2022-08-29T16:20:13.393Z,1.97
2022-08-29T16:22:44.047Z,3.27
2022-08-29T16:25:15.835Z,4.50
2022-08-29T16:27:45.978Z,4.67
2022-08-29T16:30:19.372Z,1.80
2022-08-29T16:32:52.311Z,2.27
2022-08-29T16:35:22.690Z,10.33
2022-08-29T16:38:02.304Z,3.10
2022-08-29T16:40:33.642Z,6.27
2022-08-29T16:43:04.401Z,3.47
2022-08-29T16:45:37.108Z,3.03
2022-08-29T16:48:17.065Z,2.37
2022-08-29T16:50:48.172Z,6.30
2022-08-29T16:53:19.377Z,2.17
2022-08-29T16:55:50.100Z,10.70
2022-08-29T16:58:32.267Z,9.20
2022-08-29T17:01:04.635Z,8.83
2022-08-29T17:03:34.471Z,1.77
2022-08-29T17:06:04.275Z,5.13
2022-08-29T17:08:32.524Z,3.70
2022-08-29T17:10:59.559Z,3.13
2022-08-29T17:13:26.770Z,4.80
2022-08-29T17:15:55.314Z,2.80
2022-08-29T17:18:27.601Z,4.10
2022-08-29T17:20:59.886Z,5.23
2022-08-29T17:23:29.732Z,14.73
2022-08-29T17:26:01.626Z,8.23
2022-08-29T17:28:33.843Z,2.40
2022-08-29T17:31:05.507Z,6.10
2022-08-29T17:33:38.979Z,3.80
2022-08-29T17:36:11.416Z,9.07
2022-08-29T17:38:45.104Z,2.77
2022-08-29T17:41:17.562Z,3.93
2022-08-29T17:43:49.395Z,6.73
2022-08-29T17:46:21.955Z,9.60
2022-08-29T17:48:54.578Z,7.10
2022-08-29T17:51:24.659Z,7.07
2022-08-29T17:53:54.694Z,7.00
2022-08-29T17:56:32.756Z,7.97
2022-08-29T17:59:05.885Z,9.23
2022-08-29T18:01:36.671Z,5.80
2022-08-29T18:04:12.347Z,6.33
2022-08-29T18:06:42.673Z,9.17
2022-08-29T18:09:12.962Z,6.00
2022-08-29T18:11:44.495Z,2.80
2022-08-29T18:14:14.795Z,8.10
2022-08-29T18:16:44.860Z,5.00
2022-08-29T18:19:18.429Z,4.00
2022-08-29T18:21:48.347Z,4.57
2022-08-29T18:24:18.499Z,5.40
2022-08-29T18:26:50.140Z,3.90
2022-08-29T18:29:20.826Z,4.93
2022-08-29T18:31:51.285Z,4.10
2022-08-29T18:34:24.326Z,3.43
2022-08-29T18:36:54.204Z,3.07
2022-08-29T18:39:24.136Z,2.60
2022-08-29T18:41:54.826Z,5.23
2022-08-29T18:44:24.705Z,7.30
2022-08-29T18:46:54.534Z,4.37
2022-08-29T18:49:48.310Z,2.93
2022-08-29T18:52:18.577Z,6.83
2022-08-29T18:54:48.229Z,4.33
2022-08-29T18:57:18.977Z,4.00
2022-08-29T18:59:48.755Z,10.13
2022-08-29T19:02:18.618Z,4.13
2022-08-29T19:04:52.133Z,4.93
2022-08-29T19:07:24.153Z,5.77
2022-08-29T19:09:54.707Z,3.33
2022-08-29T19:12:24.495Z,5.40
2022-08-29T19:14:54.339Z,5.67
2022-08-29T19:17:23.996Z,3.90
2022-08-29T19:20:10.398Z,5.23
2022-08-29T19:22:40.399Z,5.00
2022-08-29T19:25:11.547Z,3.20
2022-08-29T19:27:44.232Z,5.57
2022-08-29T19:30:18.436Z,7.97
2022-08-29T19:32:48.472Z,4.77
2022-08-29T19:35:21.997Z,6.10
2022-08-29T19:37:54.142Z,4.40
2022-08-29T19:40:26.047Z,3.10
2022-08-29T19:42:56.987Z,7.10
2022-08-29T19:45:27.381Z,4.20
2022-08-29T19:48:00.410Z,3.83
2022-08-29T19:50:32.895Z,6.83
2022-08-29T19:53:03.276Z,2.47
2022-08-29T19:55:35.120Z,6.37
2022-08-29T19:58:04.975Z,6.23
2022-08-29T20:00:35.721Z,1.53
2022-08-29T20:03:05.410Z,4.10
2022-08-29T20:05:38.600Z,3.90
2022-08-29T20:08:09.711Z,2.60
2022-08-29T20:10:41.007Z,10.50
2022-08-29T20:13:10.659Z,3.73
2022-08-29T20:15:40.511Z,4.50
2022-08-29T20:18:11.271Z,4.60
2022-08-29T20:20:48.611Z,3.63
2022-08-29T20:23:18.415Z,1.83
2022-08-29T20:25:49.203Z,1.80
2022-08-29T20:28:19.917Z,9.90
2022-08-29T20:30:49.995Z,3.90
2022-08-29T20:33:23.355Z,2.27
2022-08-29T20:36:08.617Z,3.13
2022-08-29T20:38:40.471Z,1.10
2022-08-29T20:41:10.193Z,2.47
2022-08-29T20:43:39.897Z,3.87
2022-08-29T20:46:10.660Z,1.60
2022-08-29T20:48:41.294Z,3.00
2022-08-29T20:51:14.602Z,2.10
2022-08-29T20:53:44.584Z,3.53
2022-08-29T20:56:15.335Z,1.33
2022-08-29T20:58:45.956Z,2.20
2022-08-29T21:01:15.678Z,3.33
2022-08-29T21:03:57.989Z,7.97
2022-08-29T21:06:31.376Z,7.90
2022-08-29T21:09:01.195Z,4.40
2022-08-29T21:11:31.911Z,8.87
2022-08-29T21:14:01.619Z,2.33
2022-08-29T21:16:32.504Z,9.23
2022-08-29T21:19:03.947Z,2.90
2022-08-29T21:21:36.192Z,1.10
2022-08-29T21:24:06.501Z,4.77
2022-08-29T21:26:37.635Z,5.57
2022-08-29T21:29:10.155Z,1.97
2022-08-29T21:31:41.314Z,7.67
2022-08-29T21:34:13.103Z,2.33
2022-08-29T21:36:47.610Z,3.80
2022-08-29T21:39:28.100Z,6.40
2022-08-29T21:42:02.938Z,2.90
2022-08-29T21:44:34.620Z,1.40
2022-08-29T21:47:04.402Z,2.80
2022-08-29T21:49:34.157Z,7.73
2022-08-29T21:52:07.142Z,6.70
2022-08-29T21:54:38.886Z,7.13
2022-08-29T21:57:08.395Z,1.37
2022-08-29T21:59:39.100Z,2.60
2022-08-29T22:02:12.186Z,7.40
2022-08-29T22:04:42.674Z,3.97
2022-08-29T22:07:16.192Z,2.20
2022-08-29T22:09:46.585Z,2.10
2022-08-29T22:12:16.250Z,2.17
2022-08-29T22:14:58.537Z,7.83
2022-08-29T22:17:29.315Z,2.80
2022-08-29T22:19:59.009Z,3.93
2022-08-29T22:22:32.318Z,4.00
2022-08-29T22:25:02.746Z,2.10
2022-08-29T22:27:32.468Z,3.97
2022-08-29T22:30:02.258Z,3.37
2022-08-29T22:32:35.892Z,4.63
2022-08-29T22:35:07.822Z,12.47
2022-08-29T22:37:40.116Z,2.03
2022-08-29T22:40:15.246Z,1.67
2022-08-29T22:42:45.521Z,2.40
2022-08-29T22:45:16.742Z,2.10
2022-08-29T22:47:49.106Z,2.60
2022-08-29T22:50:21.522Z,3.03
2022-08-29T22:52:57.482Z,5.80
2022-08-29T22:57:56.543Z,1.87
2022-08-29T23:00:28.989Z,4.47
2022-08-29T23:02:58.732Z,2.60
2022-08-29T23:05:28.682Z,2.80
2022-08-29T23:08:00.999Z,2.37
2022-08-29T23:10:30.686Z,4.03
2022-08-29T23:13:00.649Z,7.90
2022-08-29T23:15:30.552Z,2.17
2022-08-29T23:18:02.699Z,2.87
2022-08-29T23:20:32.346Z,4.10
2022-08-29T23:23:04.618Z,3.23
2022-08-29T23:25:38.272Z,6.70
2022-08-29T23:28:07.974Z,2.47
2022-08-29T23:30:37.669Z,2.13
2022-08-29T23:33:07.450Z,1.77
2022-08-29T23:35:38.735Z,3.63
2022-08-29T23:38:10.997Z,2.47
2022-08-29T23:40:40.780Z,1.93
2022-08-29T23:43:10.464Z,2.30
2022-08-29T23:45:40.717Z,2.37
2022-08-29T23:48:10.358Z,1.83
2022-08-29T23:50:39.991Z,3.20
2022-08-29T23:53:12.704Z,3.27
2022-08-29T23:55:43.544Z,3.83
2022-08-29T23:58:13.196Z,4.00
